sensor_id;sensor_type;location;lat;lon;timestamp;P1;durP1;ratioP1;P2;durP2;ratioP2
11854;SDS011;5987;53.140;8.904;2022-11-11T00:01:10;6.73;;;2.03;;
11854;SDS011;5987;53.140;8.904;2022-11-11T00:04:16;8.53;;;2.73;;
11854;SDS011;5987;53.140;8.904;2022-11-11T00:07:21;6.27;;;2.30;;
11854;SDS011;5987;53.140;8.904;2022-11-11T00:10:25;7.00;;;2.60;;
11854;SDS011;5987;53.140;8.904;2022-11-11T00:13:30;5.43;;;2.10;;
11854;SDS011;5987;53.140;8.904;2022-11-11T00:16:34;6.10;;;2.40;;
11854;SDS011;5987;53.140;8.904;2022-11-11T00:19:51;8.23;;;2.47;;
11854;SDS011;5987;53.140;8.904;2022-11-11T00:23:16;6.23;;;2.70;;
11854;SDS011;5987;53.140;8.904;2022-11-11T00:26:41;7.00;;;3.00;;
11854;SDS011;5987;53.140;8.904;2022-11-11T00:29:45;6.17;;;2.37;;
11854;SDS011;5987;53.140;8.904;2022-11-11T00:32:49;5.77;;;2.50;;
11854;SDS011;5987;53.140;8.904;2022-11-11T00:35:53;6.60;;;2.40;;
11854;SDS011;5987;53.140;8.904;2022-11-11T00:38:59;11.10;;;2.50;;
11854;SDS011;5987;53.140;8.904;2022-11-11T00:42:02;9.13;;;2.60;;
11854;SDS011;5987;53.140;8.904;2022-11-11T00:45:07;5.40;;;2.57;;
11854;SDS011;5987;53.140;8.904;2022-11-11T00:48:12;4.87;;;2.50;;
11854;SDS011;5987;53.140;8.904;2022-11-11T00:51:33;6.37;;;3.17;;
11854;SDS011;5987;53.140;8.904;2022-11-11T00:54:38;5.87;;;2.70;;
11854;SDS011;5987;53.140;8.904;2022-11-11T00:57:42;6.87;;;2.67;;
11854;SDS011;5987;53.140;8.904;2022-11-11T01:00:45;7.93;;;2.73;;
11854;SDS011;5987;53.140;8.904;2022-11-11T01:03:50;6.80;;;3.30;;
11854;SDS011;5987;53.140;8.904;2022-11-11T01:06:54;8.23;;;3.10;;
11854;SDS011;5987;53.140;8.904;2022-11-11T01:09:59;6.93;;;3.03;;
11854;SDS011;5987;53.140;8.904;2022-11-11T01:13:03;8.80;;;2.93;;
11854;SDS011;5987;53.140;8.904;2022-11-11T01:16:15;5.43;;;2.50;;
11854;SDS011;5987;53.140;8.904;2022-11-11T01:19:21;6.17;;;2.93;;
11854;SDS011;5987;53.140;8.904;2022-11-11T01:22:25;5.30;;;2.60;;
11854;SDS011;5987;53.140;8.904;2022-11-11T01:25:33;9.03;;;3.13;;
11854;SDS011;5987;53.140;8.904;2022-11-11T01:28:37;5.40;;;3.10;;
11854;SDS011;5987;53.140;8.904;2022-11-11T01:31:41;8.63;;;3.00;;
11854;SDS011;5987;53.140;8.904;2022-11-11T01:34:45;5.57;;;2.97;;
11854;SDS011;5987;53.140;8.904;2022-11-11T01:37:49;7.13;;;2.97;;
11854;SDS011;5987;53.140;8.904;2022-11-11T01:40:54;7.90;;;3.00;;
11854;SDS011;5987;53.140;8.904;2022-11-11T01:43:58;8.37;;;3.10;;
11854;SDS011;5987;53.140;8.904;2022-11-11T01:47:03;9.60;;;2.87;;
11854;SDS011;5987;53.140;8.904;2022-11-11T01:50:09;5.27;;;2.97;;
11854;SDS011;5987;53.140;8.904;2022-11-11T01:53:12;10.20;;;3.73;;
11854;SDS011;5987;53.140;8.904;2022-11-11T01:56:17;8.37;;;3.73;;
11854;SDS011;5987;53.140;8.904;2022-11-11T01:59:22;10.43;;;4.03;;
11854;SDS011;5987;53.140;8.904;2022-11-11T02:02:29;8.97;;;3.53;;
11854;SDS011;5987;53.140;8.904;2022-11-11T02:05:41;7.03;;;3.70;;
11854;SDS011;5987;53.140;8.904;2022-11-11T02:08:44;5.37;;;3.37;;
11854;SDS011;5987;53.140;8.904;2022-11-11T02:11:50;11.83;;;3.80;;
11854;SDS011;5987;53.140;8.904;2022-11-11T02:15:13;4.87;;;2.83;;
11854;SDS011;5987;53.140;8.904;2022-11-11T02:18:17;6.03;;;3.43;;
11854;SDS011;5987;53.140;8.904;2022-11-11T02:21:23;7.73;;;3.60;;
11854;SDS011;5987;53.140;8.904;2022-11-11T02:24:37;6.17;;;4.00;;
11854;SDS011;5987;53.140;8.904;2022-11-11T02:27:43;8.87;;;3.87;;
11854;SDS011;5987;53.140;8.904;2022-11-11T02:30:52;7.17;;;3.97;;
11854;SDS011;5987;53.140;8.904;2022-11-11T02:33:55;7.83;;;3.40;;
11854;SDS011;5987;53.140;8.904;2022-11-11T02:36:59;9.20;;;4.33;;
11854;SDS011;5987;53.140;8.904;2022-11-11T02:40:10;10.93;;;4.30;;
11854;SDS011;5987;53.140;8.904;2022-11-11T02:43:18;7.40;;;4.10;;
11854;SDS011;5987;53.140;8.904;2022-11-11T02:46:22;9.67;;;4.53;;
11854;SDS011;5987;53.140;8.904;2022-11-11T02:49:26;8.47;;;4.23;;
11854;SDS011;5987;53.140;8.904;2022-11-11T02:52:30;9.40;;;3.97;;
11854;SDS011;5987;53.140;8.904;2022-11-11T02:55:35;4.63;;;3.57;;
11854;SDS011;5987;53.140;8.904;2022-11-11T02:58:38;8.93;;;3.70;;
11854;SDS011;5987;53.140;8.904;2022-11-11T03:01:42;7.47;;;4.60;;
11854;SDS011;5987;53.140;8.904;2022-11-11T03:04:46;9.57;;;4.00;;
11854;SDS011;5987;53.140;8.904;2022-11-11T03:07:50;9.73;;;3.70;;
11854;SDS011;5987;53.140;8.904;2022-11-11T03:10:55;10.37;;;4.13;;
11854;SDS011;5987;53.140;8.904;2022-11-11T03:13:59;7.80;;;4.00;;
11854;SDS011;5987;53.140;8.904;2022-11-11T03:17:03;8.87;;;4.00;;
11854;SDS011;5987;53.140;8.904;2022-11-11T03:20:24;9.00;;;4.20;;
11854;SDS011;5987;53.140;8.904;2022-11-11T03:23:46;7.93;;;4.47;;
11854;SDS011;5987;53.140;8.904;2022-11-11T03:26:51;8.10;;;4.23;;
11854;SDS011;5987;53.140;8.904;2022-11-11T03:29:54;6.47;;;3.30;;
11854;SDS011;5987;53.140;8.904;2022-11-11T03:32:58;11.17;;;4.20;;
11854;SDS011;5987;53.140;8.904;2022-11-11T03:36:02;9.67;;;4.37;;
11854;SDS011;5987;53.140;8.904;2022-11-11T03:39:06;6.33;;;4.03;;
11854;SDS011;5987;53.140;8.904;2022-11-11T03:42:10;12.40;;;3.83;;
11854;SDS011;5987;53.140;8.904;2022-11-11T03:45:14;10.07;;;4.47;;
11854;SDS011;5987;53.140;8.904;2022-11-11T03:48:17;10.87;;;4.07;;
11854;SDS011;5987;53.140;8.904;2022-11-11T03:51:21;8.60;;;4.33;;
11854;SDS011;5987;53.140;8.904;2022-11-11T03:54:25;10.30;;;4.40;;
11854;SDS011;5987;53.140;8.904;2022-11-11T03:57:30;7.90;;;4.13;;
11854;SDS011;5987;53.140;8.904;2022-11-11T04:00:34;6.47;;;3.87;;
11854;SDS011;5987;53.140;8.904;2022-11-11T04:03:38;7.13;;;4.40;;
11854;SDS011;5987;53.140;8.904;2022-11-11T04:06:58;10.73;;;4.07;;
11854;SDS011;5987;53.140;8.904;2022-11-11T04:10:31;7.90;;;4.23;;
11854;SDS011;5987;53.140;8.904;2022-11-11T04:13:36;8.77;;;4.53;;
11854;SDS011;5987;53.140;8.904;2022-11-11T04:16:59;8.03;;;4.77;;
11854;SDS011;5987;53.140;8.904;2022-11-11T04:20:03;10.27;;;4.37;;
11854;SDS011;5987;53.140;8.904;2022-11-11T04:23:24;8.83;;;4.20;;
11854;SDS011;5987;53.140;8.904;2022-11-11T04:26:28;7.77;;;4.63;;
11854;SDS011;5987;53.140;8.904;2022-11-11T04:29:32;8.57;;;4.50;;
11854;SDS011;5987;53.140;8.904;2022-11-11T04:32:36;10.80;;;4.90;;
11854;SDS011;5987;53.140;8.904;2022-11-11T04:35:40;9.23;;;4.80;;
11854;SDS011;5987;53.140;8.904;2022-11-11T04:38:44;10.33;;;4.63;;
11854;SDS011;5987;53.140;8.904;2022-11-11T04:42:05;10.07;;;4.97;;
11854;SDS011;5987;53.140;8.904;2022-11-11T04:45:11;9.63;;;5.40;;
11854;SDS011;5987;53.140;8.904;2022-11-11T04:48:32;7.13;;;4.90;;
11854;SDS011;5987;53.140;8.904;2022-11-11T04:51:36;8.83;;;4.27;;
11854;SDS011;5987;53.140;8.904;2022-11-11T04:54:53;7.77;;;5.30;;
11854;SDS011;5987;53.140;8.904;2022-11-11T04:58:23;11.10;;;5.10;;
11854;SDS011;5987;53.140;8.904;2022-11-11T05:01:29;8.17;;;4.77;;
11854;SDS011;5987;53.140;8.904;2022-11-11T05:04:53;9.33;;;4.63;;
11854;SDS011;5987;53.140;8.904;2022-11-11T05:07:56;9.83;;;5.53;;
11854;SDS011;5987;53.140;8.904;2022-11-11T05:11:18;5.83;;;4.90;;
11854;SDS011;5987;53.140;8.904;2022-11-11T05:14:23;9.03;;;5.67;;
11854;SDS011;5987;53.140;8.904;2022-11-11T05:17:45;11.90;;;5.57;;
11854;SDS011;5987;53.140;8.904;2022-11-11T05:21:07;11.47;;;5.23;;
11854;SDS011;5987;53.140;8.904;2022-11-11T05:24:24;12.23;;;7.10;;
11854;SDS011;5987;53.140;8.904;2022-11-11T05:27:44;10.77;;;7.00;;
11854;SDS011;5987;53.140;8.904;2022-11-11T05:30:48;9.83;;;5.33;;
11854;SDS011;5987;53.140;8.904;2022-11-11T05:33:55;11.37;;;5.80;;
11854;SDS011;5987;53.140;8.904;2022-11-11T05:37:03;11.27;;;6.80;;
11854;SDS011;5987;53.140;8.904;2022-11-11T05:40:07;10.90;;;6.93;;
11854;SDS011;5987;53.140;8.904;2022-11-11T05:43:13;12.07;;;6.63;;
11854;SDS011;5987;53.140;8.904;2022-11-11T05:46:17;13.87;;;7.47;;
11854;SDS011;5987;53.140;8.904;2022-11-11T05:49:25;12.40;;;7.10;;
11854;SDS011;5987;53.140;8.904;2022-11-11T05:52:30;10.17;;;7.60;;
11854;SDS011;5987;53.140;8.904;2022-11-11T05:55:33;17.23;;;8.10;;
11854;SDS011;5987;53.140;8.904;2022-11-11T05:58:37;17.03;;;8.80;;
11854;SDS011;5987;53.140;8.904;2022-11-11T06:01:41;13.47;;;8.53;;
11854;SDS011;5987;53.140;8.904;2022-11-11T06:04:46;15.80;;;9.10;;
11854;SDS011;5987;53.140;8.904;2022-11-11T06:07:50;14.53;;;9.20;;
11854;SDS011;5987;53.140;8.904;2022-11-11T06:10:55;16.60;;;9.57;;
11854;SDS011;5987;53.140;8.904;2022-11-11T06:13:59;18.47;;;9.97;;
11854;SDS011;5987;53.140;8.904;2022-11-11T06:17:03;15.60;;;9.63;;
11854;SDS011;5987;53.140;8.904;2022-11-11T06:20:08;16.73;;;9.13;;
11854;SDS011;5987;53.140;8.904;2022-11-11T06:23:13;13.20;;;9.10;;
11854;SDS011;5987;53.140;8.904;2022-11-11T06:26:16;16.00;;;8.77;;
11854;SDS011;5987;53.140;8.904;2022-11-11T06:29:20;15.67;;;9.30;;
11854;SDS011;5987;53.140;8.904;2022-11-11T06:32:24;15.37;;;9.20;;
11854;SDS011;5987;53.140;8.904;2022-11-11T06:35:29;15.17;;;9.43;;
11854;SDS011;5987;53.140;8.904;2022-11-11T06:38:33;17.77;;;9.53;;
11854;SDS011;5987;53.140;8.904;2022-11-11T06:41:36;20.07;;;10.03;;
11854;SDS011;5987;53.140;8.904;2022-11-11T06:44:40;15.77;;;9.60;;
11854;SDS011;5987;53.140;8.904;2022-11-11T06:47:44;15.13;;;10.40;;
11854;SDS011;5987;53.140;8.904;2022-11-11T06:50:49;16.23;;;10.63;;
11854;SDS011;5987;53.140;8.904;2022-11-11T06:53:53;17.57;;;10.40;;
11854;SDS011;5987;53.140;8.904;2022-11-11T06:56:57;20.47;;;10.87;;
11854;SDS011;5987;53.140;8.904;2022-11-11T07:00:08;17.33;;;10.57;;
11854;SDS011;5987;53.140;8.904;2022-11-11T07:03:13;20.20;;;9.90;;
11854;SDS011;5987;53.140;8.904;2022-11-11T07:06:27;18.47;;;11.23;;
11854;SDS011;5987;53.140;8.904;2022-11-11T07:09:30;20.43;;;11.10;;
11854;SDS011;5987;53.140;8.904;2022-11-11T07:12:34;18.70;;;11.10;;
11854;SDS011;5987;53.140;8.904;2022-11-11T07:15:39;17.57;;;11.00;;
11854;SDS011;5987;53.140;8.904;2022-11-11T07:18:44;17.87;;;12.40;;
11854;SDS011;5987;53.140;8.904;2022-11-11T07:21:49;15.97;;;10.30;;
11854;SDS011;5987;53.140;8.904;2022-11-11T07:24:52;18.53;;;10.97;;
11854;SDS011;5987;53.140;8.904;2022-11-11T07:27:56;15.83;;;11.33;;
11854;SDS011;5987;53.140;8.904;2022-11-11T07:31:00;20.23;;;10.77;;
11854;SDS011;5987;53.140;8.904;2022-11-11T07:34:04;15.47;;;10.43;;
11854;SDS011;5987;53.140;8.904;2022-11-11T07:37:09;18.37;;;11.00;;
11854;SDS011;5987;53.140;8.904;2022-11-11T07:40:14;16.07;;;10.40;;
11854;SDS011;5987;53.140;8.904;2022-11-11T07:43:19;22.93;;;13.13;;
11854;SDS011;5987;53.140;8.904;2022-11-11T07:46:25;17.77;;;12.10;;
11854;SDS011;5987;53.140;8.904;2022-11-11T07:49:29;17.10;;;12.03;;
11854;SDS011;5987;53.140;8.904;2022-11-11T07:52:34;19.87;;;12.33;;
11854;SDS011;5987;53.140;8.904;2022-11-11T07:55:38;18.97;;;12.37;;
11854;SDS011;5987;53.140;8.904;2022-11-11T07:58:42;20.83;;;12.70;;
11854;SDS011;5987;53.140;8.904;2022-11-11T08:01:45;20.23;;;11.87;;
11854;SDS011;5987;53.140;8.904;2022-11-11T08:04:49;20.23;;;12.67;;
11854;SDS011;5987;53.140;8.904;2022-11-11T08:08:02;23.23;;;13.13;;
11854;SDS011;5987;53.140;8.904;2022-11-11T08:11:06;18.10;;;11.43;;
11854;SDS011;5987;53.140;8.904;2022-11-11T08:14:10;21.33;;;11.97;;
11854;SDS011;5987;53.140;8.904;2022-11-11T08:17:13;22.33;;;12.53;;
11854;SDS011;5987;53.140;8.904;2022-11-11T08:20:16;22.60;;;11.77;;
11854;SDS011;5987;53.140;8.904;2022-11-11T08:23:21;20.80;;;11.87;;
11854;SDS011;5987;53.140;8.904;2022-11-11T08:26:53;21.70;;;12.47;;
11854;SDS011;5987;53.140;8.904;2022-11-11T08:29:56;18.80;;;12.13;;
11854;SDS011;5987;53.140;8.904;2022-11-11T08:33:01;17.43;;;10.93;;
11854;SDS011;5987;53.140;8.904;2022-11-11T08:36:27;20.30;;;11.50;;
11854;SDS011;5987;53.140;8.904;2022-11-11T08:39:32;19.57;;;10.43;;
11854;SDS011;5987;53.140;8.904;2022-11-11T08:42:36;20.93;;;11.50;;
11854;SDS011;5987;53.140;8.904;2022-11-11T08:45:39;18.77;;;12.00;;
11854;SDS011;5987;53.140;8.904;2022-11-11T08:48:43;18.10;;;11.07;;
11854;SDS011;5987;53.140;8.904;2022-11-11T08:51:48;17.67;;;11.60;;
11854;SDS011;5987;53.140;8.904;2022-11-11T08:54:53;24.03;;;12.67;;
11854;SDS011;5987;53.140;8.904;2022-11-11T08:57:57;20.73;;;11.63;;
11854;SDS011;5987;53.140;8.904;2022-11-11T09:01:01;18.53;;;12.70;;
11854;SDS011;5987;53.140;8.904;2022-11-11T09:04:05;21.00;;;11.73;;
11854;SDS011;5987;53.140;8.904;2022-11-11T09:07:29;19.80;;;12.30;;
11854;SDS011;5987;53.140;8.904;2022-11-11T09:10:34;21.33;;;12.67;;
11854;SDS011;5987;53.140;8.904;2022-11-11T09:13:39;21.77;;;11.57;;
11854;SDS011;5987;53.140;8.904;2022-11-11T09:16:42;19.13;;;12.37;;
11854;SDS011;5987;53.140;8.904;2022-11-11T09:19:46;20.10;;;12.60;;
11854;SDS011;5987;53.140;8.904;2022-11-11T09:22:49;21.33;;;12.57;;
11854;SDS011;5987;53.140;8.904;2022-11-11T09:25:55;20.33;;;11.77;;
11854;SDS011;5987;53.140;8.904;2022-11-11T09:29:04;19.73;;;12.13;;
11854;SDS011;5987;53.140;8.904;2022-11-11T09:32:08;20.57;;;13.43;;
11854;SDS011;5987;53.140;8.904;2022-11-11T09:35:11;20.20;;;12.10;;
11854;SDS011;5987;53.140;8.904;2022-11-11T09:38:15;22.27;;;12.87;;
11854;SDS011;5987;53.140;8.904;2022-11-11T09:41:21;16.63;;;11.23;;
11854;SDS011;5987;53.140;8.904;2022-11-11T09:45:00;20.80;;;12.13;;
11854;SDS011;5987;53.140;8.904;2022-11-11T09:48:26;15.63;;;11.07;;
11854;SDS011;5987;53.140;8.904;2022-11-11T09:51:57;24.53;;;12.87;;
11854;SDS011;5987;53.140;8.904;2022-11-11T09:55:11;24.37;;;12.23;;
11854;SDS011;5987;53.140;8.904;2022-11-11T09:58:22;19.70;;;12.07;;
11854;SDS011;5987;53.140;8.904;2022-11-11T10:01:35;19.10;;;11.90;;
11854;SDS011;5987;53.140;8.904;2022-11-11T10:04:48;17.47;;;12.03;;
11854;SDS011;5987;53.140;8.904;2022-11-11T10:08:03;18.53;;;11.53;;
11854;SDS011;5987;53.140;8.904;2022-11-11T10:11:18;17.93;;;12.10;;
11854;SDS011;5987;53.140;8.904;2022-11-11T10:14:32;16.83;;;11.20;;
11854;SDS011;5987;53.140;8.904;2022-11-11T10:17:42;19.50;;;11.50;;
11854;SDS011;5987;53.140;8.904;2022-11-11T10:21:02;15.60;;;10.23;;
11854;SDS011;5987;53.140;8.904;2022-11-11T10:24:17;16.37;;;11.53;;
11854;SDS011;5987;53.140;8.904;2022-11-11T10:27:31;14.87;;;10.37;;
11854;SDS011;5987;53.140;8.904;2022-11-11T10:30:37;18.07;;;10.83;;
11854;SDS011;5987;53.140;8.904;2022-11-11T10:33:41;20.23;;;10.97;;
11854;SDS011;5987;53.140;8.904;2022-11-11T10:36:53;17.30;;;11.03;;
11854;SDS011;5987;53.140;8.904;2022-11-11T10:40:01;16.00;;;10.97;;
11854;SDS011;5987;53.140;8.904;2022-11-11T10:43:20;17.67;;;10.60;;
11854;SDS011;5987;53.140;8.904;2022-11-11T10:46:28;14.90;;;10.27;;
11854;SDS011;5987;53.140;8.904;2022-11-11T10:49:42;17.23;;;10.97;;
11854;SDS011;5987;53.140;8.904;2022-11-11T10:52:58;14.27;;;10.43;;
11854;SDS011;5987;53.140;8.904;2022-11-11T10:56:16;15.40;;;10.00;;
11854;SDS011;5987;53.140;8.904;2022-11-11T10:59:28;15.67;;;10.10;;
11854;SDS011;5987;53.140;8.904;2022-11-11T11:02:43;14.47;;;9.50;;
11854;SDS011;5987;53.140;8.904;2022-11-11T11:05:58;15.47;;;9.27;;
11854;SDS011;5987;53.140;8.904;2022-11-11T11:09:11;15.47;;;9.07;;
11854;SDS011;5987;53.140;8.904;2022-11-11T11:12:21;10.63;;;8.50;;
11854;SDS011;5987;53.140;8.904;2022-11-11T11:15:35;15.40;;;8.50;;
11854;SDS011;5987;53.140;8.904;2022-11-11T11:18:57;12.07;;;8.47;;
11854;SDS011;5987;53.140;8.904;2022-11-11T11:22:17;14.23;;;8.97;;
11854;SDS011;5987;53.140;8.904;2022-11-11T11:25:23;11.20;;;8.30;;
11854;SDS011;5987;53.140;8.904;2022-11-11T11:28:29;11.67;;;8.13;;
11854;SDS011;5987;53.140;8.904;2022-11-11T11:31:35;12.37;;;8.07;;
11854;SDS011;5987;53.140;8.904;2022-11-11T11:34:44;10.60;;;7.50;;
11854;SDS011;5987;53.140;8.904;2022-11-11T11:37:52;8.57;;;7.23;;
11854;SDS011;5987;53.140;8.904;2022-11-11T11:40:56;12.90;;;7.33;;
11854;SDS011;5987;53.140;8.904;2022-11-11T11:44:00;11.40;;;7.53;;
11854;SDS011;5987;53.140;8.904;2022-11-11T11:47:08;11.87;;;7.17;;
11854;SDS011;5987;53.140;8.904;2022-11-11T11:50:41;9.67;;;6.67;;
11854;SDS011;5987;53.140;8.904;2022-11-11T11:53:55;7.93;;;6.37;;
11854;SDS011;5987;53.140;8.904;2022-11-11T11:57:51;8.90;;;6.13;;
11854;SDS011;5987;53.140;8.904;2022-11-11T12:01:11;7.50;;;5.87;;
11854;SDS011;5987;53.140;8.904;2022-11-11T12:04:37;10.50;;;5.63;;
11854;SDS011;5987;53.140;8.904;2022-11-11T12:08:08;11.40;;;5.33;;
11854;SDS011;5987;53.140;8.904;2022-11-11T12:11:35;7.63;;;5.00;;
11854;SDS011;5987;53.140;8.904;2022-11-11T12:14:51;6.70;;;5.20;;
11854;SDS011;5987;53.140;8.904;2022-11-11T12:18:18;10.63;;;5.13;;
11854;SDS011;5987;53.140;8.904;2022-11-11T12:21:44;6.70;;;4.80;;
11854;SDS011;5987;53.140;8.904;2022-11-11T12:25:11;10.27;;;4.80;;
11854;SDS011;5987;53.140;8.904;2022-11-11T12:28:25;8.00;;;4.97;;
11854;SDS011;5987;53.140;8.904;2022-11-11T12:31:51;9.30;;;5.53;;
11854;SDS011;5987;53.140;8.904;2022-11-11T12:35:15;7.17;;;4.10;;
11854;SDS011;5987;53.140;8.904;2022-11-11T12:38:48;7.97;;;4.53;;
11854;SDS011;5987;53.140;8.904;2022-11-11T12:42:01;6.90;;;4.27;;
11854;SDS011;5987;53.140;8.904;2022-11-11T12:45:23;5.03;;;3.73;;
11854;SDS011;5987;53.140;8.904;2022-11-11T12:48:42;8.53;;;4.40;;
11854;SDS011;5987;53.140;8.904;2022-11-11T12:52:03;4.50;;;3.80;;
11854;SDS011;5987;53.140;8.904;2022-11-11T12:55:26;5.73;;;3.93;;
11854;SDS011;5987;53.140;8.904;2022-11-11T12:58:45;5.50;;;3.43;;
11854;SDS011;5987;53.140;8.904;2022-11-11T13:02:01;8.17;;;3.53;;
11854;SDS011;5987;53.140;8.904;2022-11-11T13:05:28;4.03;;;3.27;;
11854;SDS011;5987;53.140;8.904;2022-11-11T13:08:56;6.77;;;3.80;;
11854;SDS011;5987;53.140;8.904;2022-11-11T13:12:41;7.83;;;3.67;;
11854;SDS011;5987;53.140;8.904;2022-11-11T13:16:00;3.67;;;2.93;;
11854;SDS011;5987;53.140;8.904;2022-11-11T13:19:05;5.97;;;3.23;;
11854;SDS011;5987;53.140;8.904;2022-11-11T13:22:22;4.20;;;3.40;;
11854;SDS011;5987;53.140;8.904;2022-11-11T13:25:29;8.07;;;3.47;;
11854;SDS011;5987;53.140;8.904;2022-11-11T13:28:41;6.83;;;3.20;;
11854;SDS011;5987;53.140;8.904;2022-11-11T13:31:52;5.67;;;3.20;;
11854;SDS011;5987;53.140;8.904;2022-11-11T13:34:57;4.53;;;3.00;;
11854;SDS011;5987;53.140;8.904;2022-11-11T13:38:01;6.30;;;2.80;;
11854;SDS011;5987;53.140;8.904;2022-11-11T13:41:06;4.80;;;3.70;;
11854;SDS011;5987;53.140;8.904;2022-11-11T13:44:16;3.20;;;2.90;;
11854;SDS011;5987;53.140;8.904;2022-11-11T13:47:30;5.53;;;3.37;;
11854;SDS011;5987;53.140;8.904;2022-11-11T13:50:39;5.10;;;3.10;;
11854;SDS011;5987;53.140;8.904;2022-11-11T13:53:43;11.63;;;3.90;;
11854;SDS011;5987;53.140;8.904;2022-11-11T13:56:50;6.23;;;3.20;;
11854;SDS011;5987;53.140;8.904;2022-11-11T14:00:03;4.70;;;3.17;;
11854;SDS011;5987;53.140;8.904;2022-11-11T14:03:30;5.07;;;2.70;;
11854;SDS011;5987;53.140;8.904;2022-11-11T14:07:06;6.37;;;3.50;;
11854;SDS011;5987;53.140;8.904;2022-11-11T14:10:10;5.40;;;3.53;;
11854;SDS011;5987;53.140;8.904;2022-11-11T14:13:54;3.77;;;2.90;;
11854;SDS011;5987;53.140;8.904;2022-11-11T14:16:59;6.73;;;3.73;;
11854;SDS011;5987;53.140;8.904;2022-11-11T14:23:41;7.13;;;3.77;;
11854;SDS011;5987;53.140;8.904;2022-11-11T14:26:54;7.40;;;3.57;;
11854;SDS011;5987;53.140;8.904;2022-11-11T14:30:01;5.97;;;3.67;;
11854;SDS011;5987;53.140;8.904;2022-11-11T14:33:07;5.97;;;3.30;;
11854;SDS011;5987;53.140;8.904;2022-11-11T14:36:28;5.67;;;3.67;;
11854;SDS011;5987;53.140;8.904;2022-11-11T14:39:44;6.77;;;3.23;;
11854;SDS011;5987;53.140;8.904;2022-11-11T14:42:53;7.10;;;3.23;;
11854;SDS011;5987;53.140;8.904;2022-11-11T14:46:00;7.43;;;4.07;;
11854;SDS011;5987;53.140;8.904;2022-11-11T14:49:06;7.60;;;3.33;;
11854;SDS011;5987;53.140;8.904;2022-11-11T14:52:14;6.40;;;3.40;;
11854;SDS011;5987;53.140;8.904;2022-11-11T14:55:28;7.90;;;3.30;;
11854;SDS011;5987;53.140;8.904;2022-11-11T14:58:35;6.70;;;3.27;;
11854;SDS011;5987;53.140;8.904;2022-11-11T15:01:39;9.93;;;4.00;;
11854;SDS011;5987;53.140;8.904;2022-11-11T15:04:47;7.30;;;3.17;;
11854;SDS011;5987;53.140;8.904;2022-11-11T15:07:58;6.67;;;3.20;;
11854;SDS011;5987;53.140;8.904;2022-11-11T15:11:15;5.60;;;3.10;;
11854;SDS011;5987;53.140;8.904;2022-11-11T15:14:33;7.60;;;3.23;;
11854;SDS011;5987;53.140;8.904;2022-11-11T15:17:52;7.03;;;3.43;;
11854;SDS011;5987;53.140;8.904;2022-11-11T15:21:10;8.97;;;3.60;;
11854;SDS011;5987;53.140;8.904;2022-11-11T15:24:26;7.73;;;3.40;;
11854;SDS011;5987;53.140;8.904;2022-11-11T15:27:47;5.33;;;3.00;;
11854;SDS011;5987;53.140;8.904;2022-11-11T15:31:00;9.37;;;3.60;;
11854;SDS011;5987;53.140;8.904;2022-11-11T15:34:22;6.97;;;3.90;;
11854;SDS011;5987;53.140;8.904;2022-11-11T15:37:36;7.83;;;3.60;;
11854;SDS011;5987;53.140;8.904;2022-11-11T15:40:45;8.43;;;3.83;;
11854;SDS011;5987;53.140;8.904;2022-11-11T15:43:51;9.67;;;4.23;;
11854;SDS011;5987;53.140;8.904;2022-11-11T15:46:56;6.43;;;3.50;;
11854;SDS011;5987;53.140;8.904;2022-11-11T15:50:02;7.93;;;4.10;;
11854;SDS011;5987;53.140;8.904;2022-11-11T15:53:20;11.03;;;4.70;;
11854;SDS011;5987;53.140;8.904;2022-11-11T15:56:28;7.03;;;4.23;;
11854;SDS011;5987;53.140;8.904;2022-11-11T15:59:34;10.53;;;4.03;;
11854;SDS011;5987;53.140;8.904;2022-11-11T16:02:39;8.93;;;3.80;;
11854;SDS011;5987;53.140;8.904;2022-11-11T16:05:44;6.33;;;3.83;;
11854;SDS011;5987;53.140;8.904;2022-11-11T16:08:50;7.57;;;3.60;;
11854;SDS011;5987;53.140;8.904;2022-11-11T16:11:59;8.30;;;4.27;;
11854;SDS011;5987;53.140;8.904;2022-11-11T16:15:04;9.70;;;4.63;;
11854;SDS011;5987;53.140;8.904;2022-11-11T16:18:13;6.83;;;3.93;;
11854;SDS011;5987;53.140;8.904;2022-11-11T16:21:22;7.37;;;4.30;;
11854;SDS011;5987;53.140;8.904;2022-11-11T16:24:34;7.50;;;4.60;;
11854;SDS011;5987;53.140;8.904;2022-11-11T16:27:43;8.17;;;4.17;;
11854;SDS011;5987;53.140;8.904;2022-11-11T16:30:47;10.00;;;4.40;;
11854;SDS011;5987;53.140;8.904;2022-11-11T16:33:51;10.10;;;5.17;;
11854;SDS011;5987;53.140;8.904;2022-11-11T16:36:58;12.90;;;5.17;;
11854;SDS011;5987;53.140;8.904;2022-11-11T16:43:41;12.63;;;5.73;;
11854;SDS011;5987;53.140;8.904;2022-11-11T16:46:45;10.90;;;5.37;;
11854;SDS011;5987;53.140;8.904;2022-11-11T16:49:49;10.80;;;5.43;;
11854;SDS011;5987;53.140;8.904;2022-11-11T16:53:07;9.20;;;5.60;;
11854;SDS011;5987;53.140;8.904;2022-11-11T16:56:29;8.43;;;5.13;;
11854;SDS011;5987;53.140;8.904;2022-11-11T16:59:36;10.67;;;5.33;;
11854;SDS011;5987;53.140;8.904;2022-11-11T17:02:46;10.40;;;6.20;;
11854;SDS011;5987;53.140;8.904;2022-11-11T17:05:51;11.10;;;6.23;;
11854;SDS011;5987;53.140;8.904;2022-11-11T17:08:57;9.13;;;6.80;;
11854;SDS011;5987;53.140;8.904;2022-11-11T17:12:01;11.97;;;7.33;;
11854;SDS011;5987;53.140;8.904;2022-11-11T17:15:07;9.97;;;6.73;;
11854;SDS011;5987;53.140;8.904;2022-11-11T17:18:14;11.30;;;6.20;;
11854;SDS011;5987;53.140;8.904;2022-11-11T17:21:18;11.40;;;6.03;;
11854;SDS011;5987;53.140;8.904;2022-11-11T17:24:21;12.00;;;6.27;;
11854;SDS011;5987;53.140;8.904;2022-11-11T17:27:27;9.20;;;6.33;;
11854;SDS011;5987;53.140;8.904;2022-11-11T17:30:33;11.53;;;7.13;;
11854;SDS011;5987;53.140;8.904;2022-11-11T17:33:38;13.77;;;8.60;;
11854;SDS011;5987;53.140;8.904;2022-11-11T17:36:41;11.97;;;7.47;;
11854;SDS011;5987;53.140;8.904;2022-11-11T17:39:45;11.90;;;7.70;;
11854;SDS011;5987;53.140;8.904;2022-11-11T17:42:49;12.17;;;7.50;;
11854;SDS011;5987;53.140;8.904;2022-11-11T17:45:54;10.97;;;8.20;;
11854;SDS011;5987;53.140;8.904;2022-11-11T17:49:01;15.47;;;9.70;;
11854;SDS011;5987;53.140;8.904;2022-11-11T17:52:05;19.93;;;10.63;;
11854;SDS011;5987;53.140;8.904;2022-11-11T17:55:09;18.10;;;11.67;;
11854;SDS011;5987;53.140;8.904;2022-11-11T17:58:12;18.93;;;11.43;;
11854;SDS011;5987;53.140;8.904;2022-11-11T18:01:21;19.47;;;11.63;;
11854;SDS011;5987;53.140;8.904;2022-11-11T18:04:44;15.20;;;9.87;;
11854;SDS011;5987;53.140;8.904;2022-11-11T18:07:50;15.73;;;8.73;;
11854;SDS011;5987;53.140;8.904;2022-11-11T18:11:04;15.93;;;10.17;;
11854;SDS011;5987;53.140;8.904;2022-11-11T18:14:10;17.23;;;11.10;;
11854;SDS011;5987;53.140;8.904;2022-11-11T18:17:19;17.93;;;11.77;;
11854;SDS011;5987;53.140;8.904;2022-11-11T18:20:24;18.00;;;11.80;;
11854;SDS011;5987;53.140;8.904;2022-11-11T18:23:29;18.20;;;12.13;;
11854;SDS011;5987;53.140;8.904;2022-11-11T18:26:34;20.50;;;12.80;;
11854;SDS011;5987;53.140;8.904;2022-11-11T18:29:38;22.37;;;13.93;;
11854;SDS011;5987;53.140;8.904;2022-11-11T18:32:44;20.83;;;13.17;;
11854;SDS011;5987;53.140;8.904;2022-11-11T18:35:48;17.13;;;12.07;;
11854;SDS011;5987;53.140;8.904;2022-11-11T18:38:52;17.97;;;11.30;;
11854;SDS011;5987;53.140;8.904;2022-11-11T18:41:57;16.53;;;9.97;;
11854;SDS011;5987;53.140;8.904;2022-11-11T18:45:00;14.57;;;9.87;;
11854;SDS011;5987;53.140;8.904;2022-11-11T18:48:06;13.60;;;9.17;;
11854;SDS011;5987;53.140;8.904;2022-11-11T18:51:10;12.30;;;8.73;;
11854;SDS011;5987;53.140;8.904;2022-11-11T18:54:17;13.73;;;9.13;;
11854;SDS011;5987;53.140;8.904;2022-11-11T18:57:20;11.77;;;8.70;;
11854;SDS011;5987;53.140;8.904;2022-11-11T19:00:24;11.87;;;8.30;;
11854;SDS011;5987;53.140;8.904;2022-11-11T19:03:29;11.17;;;8.43;;
11854;SDS011;5987;53.140;8.904;2022-11-11T19:06:34;15.40;;;8.50;;
11854;SDS011;5987;53.140;8.904;2022-11-11T19:09:41;13.53;;;8.37;;
11854;SDS011;5987;53.140;8.904;2022-11-11T19:12:45;13.00;;;8.30;;